createdAt,value
2017-05-24T00:02:11.934Z,17.88
2017-05-24T00:04:40.623Z,17.82
2017-05-24T00:07:08.188Z,18.38
2017-05-24T00:09:35.691Z,15.70
2017-05-24T00:12:03.252Z,15.45
2017-05-24T00:14:31.544Z,11.40
2017-05-24T00:17:00.192Z,7.77
2017-05-24T00:19:28.464Z,3.22
2017-05-24T00:21:55.973Z,3.20
2017-05-24T00:24:24.308Z,3.08
2017-05-24T00:26:51.812Z,3.30
2017-05-24T00:29:20.098Z,2.70
2017-05-24T00:31:47.632Z,3.05
2017-05-24T00:34:15.186Z,2.80
2017-05-24T00:36:42.731Z,2.55
2017-05-24T00:39:11.055Z,2.92
2017-05-24T00:41:38.603Z,3.40
2017-05-24T00:44:06.868Z,3.12
2017-05-24T00:46:34.399Z,2.72
2017-05-24T00:49:02.043Z,3.68
2017-05-24T00:51:29.875Z,3.02
2017-05-24T00:53:57.715Z,2.87
2017-05-24T00:56:25.276Z,3.90
2017-05-24T00:58:53.545Z,4.42
2017-05-24T01:01:21.090Z,3.43
2017-05-24T01:03:48.862Z,3.73
2017-05-24T01:06:17.241Z,4.95
2017-05-24T01:08:44.824Z,3.55
2017-05-24T01:11:12.361Z,3.60
2017-05-24T01:13:40.649Z,4.23
2017-05-24T01:16:08.176Z,4.47
2017-05-24T01:18:35.716Z,4.05
2017-05-24T01:21:03.983Z,3.75
2017-05-24T01:23:31.487Z,4.45
2017-05-24T01:25:59.043Z,4.77
2017-05-24T01:28:26.611Z,4.53
2017-05-24T01:30:54.141Z,5.30
2017-05-24T01:33:21.693Z,5.33
2017-05-24T01:35:49.283Z,4.82
2017-05-24T01:38:16.884Z,4.02
2017-05-24T01:40:44.420Z,4.10
2017-05-24T01:43:12.289Z,4.37
2017-05-24T01:45:40.587Z,3.85
2017-05-24T01:48:09.142Z,3.47
2017-05-24T01:50:36.676Z,2.98
2017-05-24T01:53:04.234Z,3.68
2017-05-24T01:55:31.787Z,3.87
2017-05-24T01:57:59.348Z,3.40
2017-05-24T02:00:27.680Z,3.00
2017-05-24T02:02:56.211Z,3.33
2017-05-24T02:05:24.045Z,2.85
2017-05-24T02:07:52.428Z,2.63
2017-05-24T02:10:19.927Z,3.48
2017-05-24T02:12:48.292Z,3.18
2017-05-24T02:15:16.935Z,3.20
2017-05-24T02:17:44.439Z,2.87
2017-05-24T02:20:12.771Z,3.32
2017-05-24T02:22:40.297Z,3.05
2017-05-24T02:25:08.580Z,3.10
2017-05-24T02:27:36.908Z,2.75
2017-05-24T02:30:05.266Z,3.10
2017-05-24T02:32:32.787Z,2.67
2017-05-24T02:35:01.059Z,3.22
2017-05-24T02:37:29.359Z,3.72
2017-05-24T02:39:57.135Z,2.93
2017-05-24T02:42:25.459Z,3.35
2017-05-24T02:44:53.806Z,3.17
2017-05-24T02:47:21.539Z,2.95
2017-05-24T02:49:49.039Z,2.87
2017-05-24T02:52:16.579Z,2.90
2017-05-24T02:54:44.166Z,2.58
2017-05-24T02:57:11.749Z,2.90
2017-05-24T02:59:39.368Z,2.62
2017-05-24T03:02:07.186Z,2.63
2017-05-24T03:04:35.485Z,2.65
2017-05-24T03:07:02.984Z,2.62
2017-05-24T03:09:31.600Z,2.50
2017-05-24T03:11:59.200Z,2.38
2017-05-24T03:14:27.761Z,2.20
2017-05-24T03:16:56.116Z,1.92
2017-05-24T03:19:23.616Z,2.78
2017-05-24T03:21:51.933Z,2.53
2017-05-24T03:24:20.539Z,2.73
2017-05-24T03:26:48.391Z,2.30
2017-05-24T03:29:15.917Z,2.80
2017-05-24T03:31:43.740Z,2.53
2017-05-24T03:34:12.401Z,2.37
2017-05-24T03:36:40.707Z,2.60
2017-05-24T03:39:08.287Z,2.67
2017-05-24T03:41:36.576Z,2.32
2017-05-24T03:44:04.872Z,2.60
2017-05-24T03:46:32.483Z,2.50
2017-05-24T03:49:00.001Z,2.65
2017-05-24T03:51:27.756Z,2.27
2017-05-24T03:53:56.137Z,2.28
2017-05-24T03:56:24.616Z,2.43
2017-05-24T03:58:52.186Z,3.15
2017-05-24T04:01:20.512Z,2.10
2017-05-24T04:03:48.057Z,2.02
2017-05-24T04:06:15.609Z,2.18
2017-05-24T04:08:43.180Z,2.52
2017-05-24T04:11:10.808Z,2.07
2017-05-24T04:13:38.330Z,1.72
2017-05-24T04:16:05.831Z,1.57
2017-05-24T04:18:34.165Z,1.50
2017-05-24T04:21:01.669Z,1.65
2017-05-24T04:23:29.253Z,1.65
2017-05-24T04:25:57.520Z,1.52
2017-05-24T04:28:25.863Z,1.18
2017-05-24T04:30:54.409Z,1.98
2017-05-24T04:33:21.908Z,1.50
2017-05-24T04:35:50.264Z,1.60
2017-05-24T04:38:17.760Z,1.50
2017-05-24T04:40:45.261Z,1.73
2017-05-24T04:43:13.580Z,1.30
2017-05-24T04:45:41.848Z,1.93
2017-05-24T04:48:10.181Z,1.90
2017-05-24T04:50:37.683Z,1.47
2017-05-24T04:53:05.239Z,1.72
2017-05-24T04:55:33.528Z,1.32
2017-05-24T04:58:01.842Z,1.80
2017-05-24T05:00:30.158Z,1.43
2017-05-24T05:02:58.472Z,2.32
2017-05-24T05:05:26.255Z,1.42
2017-05-24T05:07:54.589Z,1.40
2017-05-24T05:10:22.855Z,2.30
2017-05-24T05:12:51.237Z,1.35
2017-05-24T05:15:18.772Z,1.50
2017-05-24T05:17:47.080Z,1.70
2017-05-24T05:20:15.409Z,1.20
2017-05-24T05:22:43.673Z,1.40
2017-05-24T05:25:11.989Z,1.80
2017-05-24T05:27:40.520Z,1.25
2017-05-24T05:30:08.019Z,1.65
2017-05-24T05:32:35.590Z,1.23
2017-05-24T05:35:03.855Z,2.93
2017-05-24T05:37:32.160Z,1.53
2017-05-24T05:39:59.661Z,0.95
2017-05-24T05:42:27.925Z,1.67
2017-05-24T05:44:56.222Z,2.08
2017-05-24T05:47:24.051Z,1.72
2017-05-24T05:49:51.596Z,1.35
2017-05-24T05:52:19.089Z,1.53
2017-05-24T05:54:46.592Z,0.97
2017-05-24T05:57:14.888Z,1.55
2017-05-24T05:59:42.452Z,1.55
2017-05-24T06:02:10.812Z,6.42
2017-05-24T06:04:39.099Z,1.62
2017-05-24T06:07:07.369Z,1.60
2017-05-24T06:09:35.653Z,1.30
2017-05-24T06:12:03.932Z,2.40
2017-05-24T06:14:31.475Z,1.90
2017-05-24T06:16:59.781Z,1.55
2017-05-24T06:19:28.075Z,1.78
2017-05-24T06:21:57.679Z,1.95
2017-05-24T06:24:25.473Z,1.62
2017-05-24T06:26:53.294Z,1.90
2017-05-24T06:29:21.848Z,1.60
2017-05-24T06:31:49.349Z,1.82
2017-05-24T06:34:17.173Z,1.97
2017-05-24T06:36:45.455Z,2.30
2017-05-24T06:39:12.983Z,1.95
2017-05-24T06:41:41.269Z,1.77
2017-05-24T06:44:09.536Z,1.40
2017-05-24T06:46:37.059Z,2.00
2017-05-24T06:49:04.795Z,2.27
2017-05-24T06:51:32.368Z,1.52
2017-05-24T06:54:00.904Z,1.42
2017-05-24T06:56:28.403Z,1.60
2017-05-24T06:58:55.929Z,1.66
2017-05-24T07:01:23.679Z,1.88
2017-05-24T07:03:51.443Z,2.12
2017-05-24T07:06:19.012Z,1.43
2017-05-24T07:08:47.300Z,1.68
2017-05-24T07:11:15.585Z,1.32
2017-05-24T07:13:43.089Z,1.78
2017-05-24T07:16:11.692Z,1.67
2017-05-24T07:18:40.272Z,1.90
2017-05-24T07:21:08.535Z,1.40
2017-05-24T07:23:36.089Z,2.07
2017-05-24T07:26:04.356Z,1.98
2017-05-24T07:28:32.687Z,1.27
2017-05-24T07:31:00.216Z,1.98
2017-05-24T07:33:28.796Z,1.70
2017-05-24T07:35:56.321Z,1.80
2017-05-24T07:38:24.608Z,1.30
2017-05-24T07:40:52.136Z,1.77
2017-05-24T07:43:19.939Z,1.75
2017-05-24T07:45:48.311Z,13.17
2017-05-24T07:48:16.189Z,1.68
2017-05-24T07:50:43.716Z,1.63
2017-05-24T07:53:11.259Z,1.67
2017-05-24T07:55:39.567Z,1.50
2017-05-24T07:58:07.873Z,2.25
2017-05-24T08:00:35.367Z,1.65
2017-05-24T08:03:02.939Z,1.40
2017-05-24T08:05:31.249Z,1.88
2017-05-24T08:07:58.805Z,1.82
2017-05-24T08:10:26.356Z,2.05
2017-05-24T08:12:53.888Z,1.88
2017-05-24T08:15:21.732Z,1.50
2017-05-24T08:17:49.229Z,1.88
2017-05-24T08:20:16.818Z,2.03
2017-05-24T08:22:45.090Z,1.60
2017-05-24T08:25:12.636Z,1.68
2017-05-24T08:27:40.160Z,1.85
2017-05-24T08:30:07.690Z,1.45
2017-05-24T08:32:35.533Z,1.62
2017-05-24T08:35:03.256Z,1.82
2017-05-24T08:37:31.065Z,1.90
2017-05-24T08:39:59.318Z,1.50
2017-05-24T08:42:27.872Z,2.08
2017-05-24T08:44:56.196Z,1.85
2017-05-24T08:47:24.463Z,1.77
2017-05-24T08:49:52.029Z,1.88
2017-05-24T08:52:20.299Z,1.87
2017-05-24T08:54:48.583Z,2.17
2017-05-24T08:57:16.083Z,1.58
2017-05-24T08:59:43.627Z,1.22
2017-05-24T09:02:11.140Z,2.53
2017-05-24T09:04:38.911Z,10.22
2017-05-24T09:07:06.522Z,1.90
2017-05-24T09:09:34.038Z,2.67
2017-05-24T09:12:01.608Z,2.30
2017-05-24T09:14:29.123Z,1.83
2017-05-24T09:16:58.788Z,2.42
2017-05-24T09:19:26.420Z,1.55
2017-05-24T09:21:53.948Z,2.00
2017-05-24T09:24:21.472Z,1.62
2017-05-24T09:26:49.572Z,2.60
2017-05-24T09:29:17.170Z,1.53
2017-05-24T09:31:44.940Z,1.60
2017-05-24T09:34:12.519Z,1.10
2017-05-24T09:36:40.830Z,1.57
2017-05-24T09:39:08.328Z,2.15
2017-05-24T09:41:35.852Z,1.65
2017-05-24T09:44:03.427Z,1.70
2017-05-24T09:46:30.944Z,1.70
2017-05-24T09:48:58.444Z,1.85
2017-05-24T09:51:26.784Z,1.70
2017-05-24T09:53:54.310Z,1.40
2017-05-24T09:56:21.815Z,1.60
2017-05-24T09:58:49.425Z,1.45
2017-05-24T10:01:17.732Z,1.37
2017-05-24T10:03:45.299Z,1.43
2017-05-24T10:06:12.802Z,1.68
2017-05-24T10:08:41.144Z,1.95
2017-05-24T10:11:09.673Z,1.80
2017-05-24T10:13:37.956Z,2.20
2017-05-24T10:16:06.570Z,1.90
2017-05-24T10:18:34.833Z,2.02
2017-05-24T10:21:03.140Z,1.45
2017-05-24T10:23:31.676Z,1.53
2017-05-24T10:25:59.524Z,1.70
2017-05-24T10:28:27.076Z,2.07
2017-05-24T10:30:55.345Z,2.73
2017-05-24T10:33:22.866Z,2.10
2017-05-24T10:35:50.387Z,1.97
2017-05-24T10:38:17.927Z,1.78
2017-05-24T10:40:51.335Z,1.92
2017-05-24T10:43:19.648Z,1.45
2017-05-24T10:45:48.174Z,2.07
2017-05-24T10:48:15.757Z,1.92
2017-05-24T10:50:43.260Z,1.82
2017-05-24T10:53:11.556Z,1.68
2017-05-24T10:55:39.843Z,1.58
2017-05-24T10:58:08.209Z,1.65
2017-05-24T11:00:35.737Z,1.57
2017-05-24T11:03:04.071Z,1.28
2017-05-24T11:05:31.644Z,2.40
2017-05-24T11:07:59.146Z,1.50
2017-05-24T11:10:27.447Z,1.90
2017-05-24T11:12:54.986Z,2.02
2017-05-24T11:15:22.516Z,1.35
2017-05-24T11:17:50.878Z,1.85
2017-05-24T11:20:18.383Z,1.90
2017-05-24T11:22:46.691Z,2.18
2017-05-24T11:25:14.228Z,2.20
2017-05-24T11:27:41.975Z,1.47
2017-05-24T11:30:10.262Z,1.28
2017-05-24T11:32:38.525Z,1.30
2017-05-24T11:35:06.282Z,1.40
2017-05-24T11:37:34.586Z,1.42
2017-05-24T11:40:02.453Z,1.87
2017-05-24T11:42:29.997Z,2.08
2017-05-24T11:44:57.531Z,1.60
2017-05-24T11:47:25.882Z,2.12
2017-05-24T11:49:54.151Z,2.13
2017-05-24T11:52:22.780Z,2.78
2017-05-24T11:54:51.055Z,2.30
2017-05-24T11:57:19.390Z,1.38
2017-05-24T11:59:46.969Z,1.70
2017-05-24T12:02:14.848Z,1.58
2017-05-24T12:04:42.377Z,1.78
2017-05-24T12:07:09.896Z,1.20
2017-05-24T12:09:38.545Z,1.30
2017-05-24T12:12:07.228Z,1.38
2017-05-24T12:14:35.531Z,1.58
2017-05-24T12:17:03.852Z,1.22
2017-05-24T12:19:32.124Z,1.30
2017-05-24T12:21:59.721Z,1.02
2017-05-24T12:24:28.291Z,1.20
2017-05-24T12:26:56.056Z,1.63
2017-05-24T12:29:23.924Z,1.30
2017-05-24T12:31:51.784Z,1.47
2017-05-24T12:34:19.689Z,1.57
2017-05-24T12:36:47.184Z,2.42
2017-05-24T12:39:15.492Z,1.80
2017-05-24T12:41:43.812Z,1.40
2017-05-24T12:44:12.121Z,1.60
2017-05-24T12:46:39.637Z,1.82
2017-05-24T12:49:07.951Z,1.83
2017-05-24T12:51:36.573Z,1.37
2017-05-24T12:54:04.108Z,1.18
2017-05-24T12:56:31.612Z,1.13
2017-05-24T12:58:59.900Z,1.42
2017-05-24T13:01:28.516Z,1.38
2017-05-24T13:03:56.072Z,1.38
2017-05-24T13:06:24.384Z,2.00
2017-05-24T13:08:52.680Z,1.50
2017-05-24T13:11:20.248Z,2.27
2017-05-24T13:13:48.045Z,1.22
2017-05-24T13:16:15.565Z,1.15
2017-05-24T13:18:43.859Z,1.68
2017-05-24T13:21:12.153Z,1.68
2017-05-24T13:23:40.460Z,1.67
2017-05-24T13:26:09.109Z,2.22
2017-05-24T13:28:37.379Z,1.77
2017-05-24T13:31:05.648Z,1.60
2017-05-24T13:33:33.175Z,1.52
2017-05-24T13:36:01.690Z,1.55
2017-05-24T13:38:29.302Z,1.80
2017-05-24T13:40:56.865Z,1.80
2017-05-24T13:43:25.180Z,1.70
2017-05-24T13:45:52.676Z,1.32
2017-05-24T13:48:20.455Z,1.52
2017-05-24T13:50:47.996Z,2.38
2017-05-24T13:53:15.496Z,1.43
2017-05-24T13:55:43.280Z,1.83
2017-05-24T13:58:11.598Z,1.80
2017-05-24T14:00:39.422Z,1.63
2017-05-24T14:03:06.968Z,1.72
2017-05-24T14:05:35.240Z,1.98
2017-05-24T14:08:03.116Z,1.50
2017-05-24T14:10:30.615Z,1.37
2017-05-24T14:12:59.253Z,1.97
2017-05-24T14:15:27.563Z,1.77
2017-05-24T14:17:55.895Z,2.25
2017-05-24T14:20:24.172Z,1.58
2017-05-24T14:22:51.711Z,1.60
2017-05-24T14:25:19.308Z,1.57
2017-05-24T14:27:46.884Z,1.37
2017-05-24T14:30:15.163Z,1.83
2017-05-24T14:32:43.709Z,1.60
2017-05-24T14:35:12.114Z,1.83
2017-05-24T14:37:40.417Z,2.37
2017-05-24T14:40:09.039Z,1.62
2017-05-24T14:42:37.624Z,1.68
2017-05-24T14:45:05.387Z,1.95
2017-05-24T14:47:33.707Z,1.70
2017-05-24T14:50:01.268Z,2.07
2017-05-24T14:52:28.795Z,2.10
2017-05-24T14:54:56.852Z,2.72
2017-05-24T14:57:24.408Z,2.78
2017-05-24T14:59:51.965Z,1.65
2017-05-24T15:02:19.505Z,2.23
2017-05-24T15:04:47.343Z,1.92
2017-05-24T15:07:14.847Z,2.23
2017-05-24T15:09:42.372Z,2.32
2017-05-24T15:12:10.160Z,2.55
2017-05-24T15:14:38.424Z,1.90
2017-05-24T15:17:05.991Z,2.52
2017-05-24T15:19:33.497Z,1.98
2017-05-24T15:22:01.784Z,2.58
2017-05-24T15:24:29.306Z,1.93
2017-05-24T15:26:56.827Z,2.25
2017-05-24T15:29:24.360Z,2.48
2017-05-24T15:31:51.939Z,2.52
2017-05-24T15:34:19.440Z,3.50
2017-05-24T15:36:46.992Z,1.95
2017-05-24T15:39:14.864Z,2.48
2017-05-24T15:41:42.358Z,2.25
2017-05-24T15:44:09.921Z,2.10
2017-05-24T15:46:37.419Z,2.10
2017-05-24T15:49:05.015Z,2.28
2017-05-24T15:51:32.548Z,2.40
2017-05-24T15:54:00.557Z,1.85
2017-05-24T15:56:28.846Z,1.90
2017-05-24T15:58:57.112Z,2.15
2017-05-24T16:01:24.892Z,1.80
2017-05-24T16:03:52.473Z,1.65
2017-05-24T16:06:20.803Z,1.62
2017-05-24T16:08:48.326Z,2.18
2017-05-24T16:11:15.847Z,2.37
2017-05-24T16:13:43.379Z,1.90
2017-05-24T16:16:10.915Z,2.00
2017-05-24T16:18:39.184Z,2.07
2017-05-24T16:21:07.458Z,2.00
2017-05-24T16:23:35.768Z,2.68
2017-05-24T16:26:03.526Z,2.05
2017-05-24T16:28:31.048Z,2.10
2017-05-24T16:30:59.336Z,1.85
2017-05-24T16:33:26.912Z,2.08
2017-05-24T16:35:54.468Z,1.88
2017-05-24T16:38:22.329Z,1.90
2017-05-24T16:40:49.865Z,1.95
2017-05-24T16:43:17.772Z,1.72
2017-05-24T16:45:46.099Z,2.17
2017-05-24T16:48:14.365Z,1.58
2017-05-24T16:50:41.941Z,1.65
2017-05-24T16:53:09.468Z,1.90
2017-05-24T16:55:37.024Z,2.02
2017-05-24T16:58:04.600Z,1.93
2017-05-24T17:00:32.137Z,2.18
2017-05-24T17:02:59.728Z,1.92
2017-05-24T17:05:27.270Z,2.12
2017-05-24T17:07:55.585Z,2.00
2017-05-24T17:10:23.088Z,2.08
2017-05-24T17:12:50.921Z,2.18
2017-05-24T17:15:18.437Z,2.45
2017-05-24T17:17:45.956Z,2.23
2017-05-24T17:20:13.505Z,2.43
2017-05-24T17:22:41.165Z,2.07
2017-05-24T17:25:08.720Z,1.80
2017-05-24T17:27:36.277Z,2.12
2017-05-24T17:30:03.854Z,2.35
2017-05-24T17:32:32.172Z,2.85
2017-05-24T17:35:00.475Z,3.97
2017-05-24T17:37:28.016Z,1.92
2017-05-24T17:39:55.569Z,2.22
2017-05-24T17:42:23.068Z,2.28
2017-05-24T17:44:50.652Z,2.48
2017-05-24T17:47:18.179Z,2.10
2017-05-24T17:49:45.680Z,2.13
2017-05-24T17:52:13.302Z,2.10
2017-05-24T17:54:40.807Z,2.48
2017-05-24T17:57:09.416Z,2.17
2017-05-24T17:59:36.916Z,2.13
2017-05-24T18:02:04.440Z,2.20
2017-05-24T18:04:32.008Z,2.05
2017-05-24T18:06:59.571Z,2.30
2017-05-24T18:09:27.852Z,2.43
2017-05-24T18:11:55.475Z,2.65
2017-05-24T18:14:23.801Z,2.75
2017-05-24T18:16:52.072Z,2.87
2017-05-24T18:19:19.894Z,2.38
2017-05-24T18:21:47.763Z,4.25
2017-05-24T18:24:15.286Z,2.38
2017-05-24T18:26:43.900Z,3.32
2017-05-24T18:29:12.233Z,2.57
2017-05-24T18:31:39.745Z,2.72
2017-05-24T18:34:07.247Z,3.10
2017-05-24T18:36:35.048Z,3.05
2017-05-24T18:39:03.036Z,2.58
2017-05-24T18:41:30.601Z,3.38
2017-05-24T18:43:58.124Z,3.12
2017-05-24T18:46:25.687Z,3.58
2017-05-24T18:48:53.217Z,3.18
2017-05-24T18:51:20.780Z,3.13
2017-05-24T18:53:48.313Z,2.98
2017-05-24T18:56:16.126Z,3.17
2017-05-24T18:58:44.451Z,3.32
2017-05-24T19:01:11.991Z,2.95
2017-05-24T19:03:39.507Z,3.15
2017-05-24T19:06:07.792Z,2.93
2017-05-24T19:08:36.080Z,3.38
2017-05-24T19:11:04.348Z,3.15
2017-05-24T19:13:34.207Z,2.50
2017-05-24T19:16:02.108Z,3.42
2017-05-24T19:18:29.864Z,3.05
2017-05-24T19:20:57.488Z,3.02
2017-05-24T19:23:25.824Z,2.67
2017-05-24T19:25:54.147Z,2.85
2017-05-24T19:28:22.420Z,4.05
2017-05-24T19:30:52.655Z,2.88
2017-05-24T19:33:20.936Z,3.68
2017-05-24T19:35:49.777Z,4.27
2017-05-24T19:38:18.279Z,4.22
2017-05-24T19:40:46.690Z,3.45
2017-05-24T19:43:14.267Z,3.75
2017-05-24T19:45:41.770Z,5.50
2017-05-24T19:48:09.547Z,5.33
2017-05-24T19:50:37.366Z,5.10
2017-05-24T19:53:05.967Z,5.37
2017-05-24T19:55:33.781Z,4.70
2017-05-24T19:58:02.395Z,5.17
2017-05-24T20:00:30.130Z,4.77
2017-05-24T20:02:58.527Z,5.07
2017-05-24T20:05:26.281Z,5.25
2017-05-24T20:07:54.633Z,6.63
2017-05-24T20:10:23.159Z,6.75
2017-05-24T20:12:52.959Z,5.63
2017-05-24T20:15:22.118Z,6.00
2017-05-24T20:17:51.243Z,5.70
2017-05-24T20:20:22.808Z,6.12
2017-05-24T20:22:53.103Z,6.32
2017-05-24T20:25:25.638Z,6.55
2017-05-24T20:27:54.694Z,5.92
2017-05-24T20:30:24.614Z,5.62
2017-05-24T20:32:54.859Z,5.27
2017-05-24T20:35:23.673Z,4.80
2017-05-24T20:37:54.354Z,5.35
2017-05-24T20:40:24.252Z,5.13
2017-05-24T20:42:52.604Z,6.57
2017-05-24T20:45:20.976Z,5.82
2017-05-24T20:47:51.044Z,4.70
2017-05-24T20:50:21.131Z,5.05
2017-05-24T20:52:50.690Z,5.73
2017-05-24T20:55:19.169Z,5.85
2017-05-24T20:57:46.848Z,4.87
2017-05-24T21:00:17.251Z,4.52
2017-05-24T21:02:46.722Z,5.47
2017-05-24T21:05:16.260Z,5.53
2017-05-24T21:07:45.985Z,4.72
2017-05-24T21:10:15.646Z,4.33
2017-05-24T21:12:46.027Z,4.72
2017-05-24T21:15:16.921Z,3.55
2017-05-24T21:17:46.864Z,2.93
2017-05-24T21:20:16.674Z,3.17
2017-05-24T21:22:45.464Z,3.13
2017-05-24T21:25:14.658Z,2.80
2017-05-24T21:27:44.938Z,2.78
2017-05-24T21:30:15.303Z,2.95
2017-05-24T21:32:45.306Z,2.45
2017-05-24T21:35:15.609Z,3.13
2017-05-24T21:37:45.115Z,2.28
2017-05-24T21:40:14.122Z,1.83
2017-05-24T21:42:47.962Z,1.93
2017-05-24T21:45:16.229Z,1.90
2017-05-24T21:47:43.770Z,2.83
2017-05-24T21:50:11.312Z,2.30
2017-05-24T21:52:39.922Z,1.60
2017-05-24T21:55:08.282Z,1.50
2017-05-24T21:57:36.643Z,1.70
2017-05-24T22:00:04.224Z,1.90
2017-05-24T22:02:31.723Z,2.02
2017-05-24T22:04:59.250Z,1.90
2017-05-24T22:07:26.818Z,1.55
2017-05-24T22:09:55.081Z,1.47
2017-05-24T22:12:22.605Z,1.58
2017-05-24T22:14:50.202Z,1.53
2017-05-24T22:17:17.732Z,1.62
2017-05-24T22:19:45.996Z,1.72
2017-05-24T22:22:13.527Z,1.82
2017-05-24T22:24:41.085Z,1.42
2017-05-24T22:27:08.648Z,1.23
2017-05-24T22:29:36.935Z,2.45
2017-05-24T22:32:04.507Z,1.78
2017-05-24T22:34:32.024Z,2.20
2017-05-24T22:36:59.569Z,1.47
2017-05-24T22:39:27.104Z,2.22
2017-05-24T22:41:55.369Z,1.82
2017-05-24T22:44:22.874Z,1.70
2017-05-24T22:46:51.164Z,1.90
2017-05-24T22:49:18.720Z,2.00
2017-05-24T22:51:46.524Z,1.85
2017-05-24T22:54:14.029Z,2.10
2017-05-24T22:56:41.557Z,1.93
2017-05-24T22:59:09.842Z,1.48
2017-05-24T23:01:37.401Z,1.92
2017-05-24T23:04:04.955Z,1.77
2017-05-24T23:06:32.467Z,2.22
2017-05-24T23:09:00.752Z,1.62
2017-05-24T23:11:29.065Z,1.77
2017-05-24T23:13:56.639Z,1.87
2017-05-24T23:16:24.140Z,1.82
2017-05-24T23:18:52.727Z,1.92
2017-05-24T23:21:20.239Z,1.97
2017-05-24T23:23:47.787Z,2.33
2017-05-24T23:26:15.287Z,1.90
2017-05-24T23:28:43.165Z,2.12
2017-05-24T23:31:10.744Z,1.70
2017-05-24T23:33:39.045Z,2.13
2017-05-24T23:36:07.575Z,1.77
2017-05-24T23:38:35.364Z,3.43
2017-05-24T23:41:03.126Z,2.72
2017-05-24T23:43:30.864Z,2.57
2017-05-24T23:45:59.274Z,2.20
2017-05-24T23:48:27.597Z,2.10
2017-05-24T23:50:55.379Z,2.47
2017-05-24T23:53:22.899Z,1.85
2017-05-24T23:55:50.423Z,2.38
2017-05-24T23:58:17.944Z,2.53
